createdAt,value
2022-10-07T00:03:41.943Z,15.49
2022-10-07T00:08:46.989Z,15.48
2022-10-07T00:13:53.125Z,15.48
2022-10-07T00:18:57.982Z,15.46
2022-10-07T00:24:00.620Z,15.42
2022-10-07T00:29:03.929Z,15.23
2022-10-07T00:34:06.266Z,15.21
2022-10-07T00:39:11.966Z,15.06
2022-10-07T00:44:32.399Z,15.23
2022-10-07T00:49:44.845Z,15.02
2022-10-07T00:54:51.595Z,15.05
2022-10-07T00:59:55.955Z,15.02
2022-10-07T01:05:01.970Z,14.81
2022-10-07T01:10:05.725Z,14.67
2022-10-07T01:15:19.686Z,14.54
2022-10-07T01:20:53.631Z,14.67
2022-10-07T01:26:23.579Z,14.62
2022-10-07T01:31:33.599Z,14.37
2022-10-07T01:36:37.934Z,14.49
2022-10-07T01:41:41.826Z,14.32
2022-10-07T01:46:44.421Z,14.25
2022-10-07T01:51:52.411Z,14.21
2022-10-07T01:57:15.129Z,14.23
2022-10-07T02:02:52.255Z,14.22
2022-10-07T02:08:15.408Z,14.02
2022-10-07T02:13:33.999Z,14.11
2022-10-07T02:18:38.406Z,14.18
2022-10-07T02:23:44.499Z,14.22
2022-10-07T02:28:51.620Z,14.09
2022-10-07T02:33:57.546Z,13.84
2022-10-07T02:39:01.783Z,13.75
2022-10-07T02:44:15.103Z,13.88
2022-10-07T02:49:21.293Z,13.92
2022-10-07T02:54:29.614Z,13.87
2022-10-07T02:59:34.070Z,13.84
2022-10-07T03:04:36.300Z,13.76
2022-10-07T03:09:38.803Z,13.81
2022-10-07T03:14:41.411Z,13.82
2022-10-07T03:19:43.894Z,13.81
2022-10-07T03:24:46.068Z,13.84
2022-10-07T03:29:49.407Z,13.83
2022-10-07T03:34:53.172Z,13.63
2022-10-07T03:39:55.420Z,13.86
2022-10-07T03:44:57.824Z,13.97
2022-10-07T03:50:00.026Z,13.90
2022-10-07T03:55:02.496Z,13.96
2022-10-07T04:00:04.948Z,13.92
2022-10-07T04:05:07.503Z,13.97
2022-10-07T04:10:11.436Z,13.97
2022-10-07T04:15:14.261Z,13.92
2022-10-07T04:20:17.827Z,14.01
2022-10-07T04:25:35.570Z,13.79
2022-10-07T04:30:43.989Z,13.87
2022-10-07T04:35:46.380Z,13.72
2022-10-07T04:40:53.427Z,13.65
2022-10-07T04:46:07.974Z,13.56
2022-10-07T04:51:11.004Z,13.58
2022-10-07T04:56:13.375Z,13.64
2022-10-07T05:01:15.663Z,13.61
2022-10-07T05:06:18.933Z,13.59
2022-10-07T05:11:21.347Z,13.70
2022-10-07T05:16:23.729Z,13.66
2022-10-07T05:21:26.006Z,13.59
2022-10-07T05:26:28.395Z,13.87
2022-10-07T05:31:30.823Z,14.09
2022-10-07T05:36:33.059Z,14.12
2022-10-07T05:41:44.999Z,14.26
2022-10-07T05:46:48.029Z,14.41
2022-10-07T05:51:51.882Z,14.50
2022-10-07T05:56:54.383Z,14.78
2022-10-07T06:02:00.743Z,14.89
2022-10-07T06:07:04.511Z,15.08
2022-10-07T06:12:25.236Z,15.14
2022-10-07T06:17:27.568Z,15.27
2022-10-07T06:22:29.817Z,15.61
2022-10-07T06:27:32.025Z,15.66
2022-10-07T06:32:34.238Z,15.82
2022-10-07T06:37:36.496Z,16.17
2022-10-07T06:42:38.865Z,16.34
2022-10-07T06:47:41.291Z,16.46
2022-10-07T06:52:44.256Z,16.64
2022-10-07T06:57:46.700Z,16.88
2022-10-07T07:02:49.113Z,16.99
2022-10-07T07:07:51.466Z,17.32
2022-10-07T07:12:54.650Z,17.48
2022-10-07T07:17:56.947Z,17.69
2022-10-07T07:22:59.316Z,17.79
2022-10-07T07:28:02.438Z,18.04
2022-10-07T07:33:05.744Z,18.25
2022-10-07T07:38:09.109Z,18.36
2022-10-07T07:43:11.354Z,18.60
2022-10-07T07:48:13.998Z,18.83
2022-10-07T07:53:16.326Z,18.94
2022-10-07T07:58:19.156Z,19.24
2022-10-07T08:03:21.549Z,19.28
2022-10-07T08:08:23.956Z,19.47
2022-10-07T08:13:26.280Z,19.64
2022-10-07T08:18:28.567Z,19.84
2022-10-07T08:23:31.323Z,20.10
2022-10-07T08:28:35.528Z,20.10
2022-10-07T08:33:43.336Z,20.31
2022-10-07T08:38:50.035Z,20.49
2022-10-07T08:43:52.819Z,20.51
2022-10-07T08:49:05.123Z,20.78
2022-10-07T08:54:13.055Z,21.03
2022-10-07T08:59:27.761Z,21.27
2022-10-07T09:04:44.867Z,21.55
2022-10-07T09:09:54.330Z,21.70
2022-10-07T09:14:59.657Z,21.69
2022-10-07T09:20:19.989Z,21.91
2022-10-07T09:25:27.554Z,21.98
2022-10-07T09:30:29.958Z,21.90
2022-10-07T09:35:32.299Z,22.05
2022-10-07T09:40:59.078Z,22.16
2022-10-07T09:46:02.190Z,22.44
2022-10-07T09:51:27.362Z,22.57
2022-10-07T09:56:42.042Z,22.73
2022-10-07T10:01:56.119Z,22.93
2022-10-07T10:07:06.651Z,22.91
2022-10-07T10:12:15.401Z,22.81
2022-10-07T10:17:28.791Z,23.07
2022-10-07T10:22:31.246Z,22.98
2022-10-07T10:28:00.141Z,23.27
2022-10-07T10:33:15.212Z,23.32
2022-10-07T10:38:26.007Z,23.56
2022-10-07T10:43:35.630Z,23.70
2022-10-07T10:48:44.775Z,23.69
2022-10-07T10:54:15.085Z,23.69
2022-10-07T10:59:41.409Z,23.86
2022-10-07T11:04:50.538Z,23.93
2022-10-07T11:10:02.030Z,23.86
2022-10-07T11:15:21.949Z,23.99
2022-10-07T11:20:41.107Z,23.96
2022-10-07T11:26:03.362Z,23.85
2022-10-07T11:31:24.118Z,24.00
2022-10-07T11:36:44.335Z,24.18
2022-10-07T11:41:58.607Z,24.35
2022-10-07T11:47:04.594Z,24.47
2022-10-07T11:52:11.455Z,24.57
2022-10-07T11:57:24.595Z,24.77
2022-10-07T12:02:29.932Z,25.05
2022-10-07T12:07:41.208Z,25.01
2022-10-07T12:12:45.003Z,25.14
2022-10-07T12:18:11.002Z,25.18
2022-10-07T12:23:28.790Z,25.27
2022-10-07T12:28:40.539Z,25.31
2022-10-07T12:33:45.816Z,25.58
2022-10-07T12:38:57.216Z,25.82
2022-10-07T12:44:11.206Z,25.68
2022-10-07T12:49:21.108Z,25.99
2022-10-07T12:54:44.244Z,26.18
2022-10-07T13:00:14.255Z,26.23
2022-10-07T13:05:53.770Z,26.36
2022-10-07T13:11:07.954Z,26.44
2022-10-07T13:16:38.981Z,26.56
2022-10-07T13:22:05.717Z,26.73
2022-10-07T13:27:10.995Z,26.82
2022-10-07T13:32:22.512Z,27.00
2022-10-07T13:37:34.312Z,27.17
2022-10-07T13:42:36.764Z,27.41
2022-10-07T13:47:40.102Z,27.62
2022-10-07T13:52:47.403Z,27.69
2022-10-07T13:57:49.984Z,27.74
2022-10-07T14:02:52.842Z,27.99
2022-10-07T14:08:16.754Z,28.13
2022-10-07T14:13:19.289Z,28.32
2022-10-07T14:18:21.699Z,28.48
2022-10-07T14:23:31.610Z,28.44
2022-10-07T14:28:36.061Z,28.67
2022-10-07T14:34:02.022Z,28.70
2022-10-07T14:39:24.556Z,28.58
2022-10-07T14:44:27.055Z,28.64
2022-10-07T14:49:30.377Z,28.58
2022-10-07T14:54:34.666Z,28.76
2022-10-07T14:59:37.683Z,28.65
2022-10-07T15:04:40.612Z,28.52
2022-10-07T15:09:44.542Z,28.40
2022-10-07T15:14:46.906Z,28.33
2022-10-07T15:19:51.689Z,28.13
2022-10-07T15:24:54.205Z,27.84
2022-10-07T15:29:56.508Z,27.20
2022-10-07T15:34:59.354Z,26.59
2022-10-07T15:40:01.625Z,26.10
2022-10-07T15:45:04.086Z,25.50
2022-10-07T15:50:07.876Z,25.11
2022-10-07T15:55:10.262Z,24.87
2022-10-07T16:00:13.099Z,24.53
2022-10-07T16:05:15.397Z,24.30
2022-10-07T16:10:17.929Z,23.95
2022-10-07T16:15:20.592Z,23.86
2022-10-07T16:20:22.764Z,23.57
2022-10-07T16:25:25.002Z,23.49
2022-10-07T16:30:42.215Z,23.31
2022-10-07T16:35:44.853Z,23.09
2022-10-07T16:40:54.848Z,22.96
2022-10-07T16:46:02.917Z,22.75
2022-10-07T16:51:08.584Z,22.42
2022-10-07T16:56:11.279Z,22.44
2022-10-07T17:01:16.769Z,22.27
2022-10-07T17:06:21.727Z,22.19
2022-10-07T17:11:31.117Z,22.05
2022-10-07T17:16:38.185Z,21.82
2022-10-07T17:21:42.966Z,21.80
2022-10-07T17:26:46.601Z,21.72
2022-10-07T17:31:51.038Z,21.54
2022-10-07T17:36:54.468Z,21.19
2022-10-07T17:41:57.924Z,21.23
2022-10-07T17:47:04.008Z,21.11
2022-10-07T17:52:06.229Z,20.98
2022-10-07T17:57:08.640Z,20.99
2022-10-07T18:02:11.363Z,20.85
2022-10-07T18:07:13.830Z,20.85
2022-10-07T18:12:34.887Z,20.70
2022-10-07T18:17:37.379Z,20.45
2022-10-07T18:22:39.623Z,20.33
2022-10-07T18:27:41.844Z,20.24
2022-10-07T18:32:44.083Z,20.22
2022-10-07T18:37:46.693Z,20.07
2022-10-07T18:42:49.125Z,20.06
2022-10-07T18:47:51.629Z,19.95
2022-10-07T18:52:54.707Z,19.70
2022-10-07T18:57:57.109Z,19.67
2022-10-07T19:02:59.468Z,19.61
2022-10-07T19:08:01.907Z,19.60
2022-10-07T19:13:22.402Z,19.37
2022-10-07T19:18:25.981Z,19.10
2022-10-07T19:23:29.558Z,19.28
2022-10-07T19:28:32.282Z,18.94
2022-10-07T19:33:35.013Z,18.90
2022-10-07T19:38:45.126Z,18.76
2022-10-07T19:43:48.758Z,18.81
2022-10-07T19:48:51.544Z,18.65
2022-10-07T19:53:55.191Z,18.58
2022-10-07T19:58:59.656Z,18.50
2022-10-07T20:04:04.829Z,18.62
2022-10-07T20:09:09.422Z,18.58
2022-10-07T20:14:11.934Z,18.48
2022-10-07T20:19:18.966Z,18.40
2022-10-07T20:24:21.494Z,18.33
2022-10-07T20:29:25.510Z,18.28
2022-10-07T20:34:28.231Z,18.13
2022-10-07T20:39:49.820Z,17.99
2022-10-07T20:44:53.651Z,17.81
2022-10-07T20:49:58.200Z,17.79
2022-10-07T20:55:00.653Z,17.44
2022-10-07T21:00:03.110Z,17.66
2022-10-07T21:05:06.994Z,17.72
2022-10-07T21:10:09.260Z,17.66
2022-10-07T21:15:11.870Z,17.47
2022-10-07T21:20:14.280Z,17.40
2022-10-07T21:25:16.688Z,17.34
2022-10-07T21:30:19.243Z,17.32
2022-10-07T21:35:21.434Z,17.49
2022-10-07T21:40:23.923Z,17.51
2022-10-07T21:45:26.091Z,17.39
2022-10-07T21:50:28.326Z,17.27
2022-10-07T21:55:30.843Z,17.24
2022-10-07T22:00:36.556Z,17.09
2022-10-07T22:05:40.302Z,17.01
2022-10-07T22:10:42.732Z,17.03
2022-10-07T22:15:45.646Z,16.77
2022-10-07T22:20:47.935Z,16.86
2022-10-07T22:25:51.812Z,16.86
2022-10-07T22:30:54.062Z,16.68
2022-10-07T22:35:56.324Z,16.63
2022-10-07T22:41:06.699Z,16.54
2022-10-07T22:46:11.140Z,16.52
2022-10-07T22:51:15.387Z,16.47
2022-10-07T22:56:18.997Z,16.28
2022-10-07T23:01:22.440Z,16.31
2022-10-07T23:06:25.123Z,15.92
2022-10-07T23:11:28.748Z,15.81
2022-10-07T23:16:34.431Z,15.84
2022-10-07T23:21:37.588Z,15.91
2022-10-07T23:26:40.075Z,15.87
2022-10-07T23:31:42.509Z,15.91
2022-10-07T23:36:45.021Z,15.91
2022-10-07T23:41:47.427Z,15.98
2022-10-07T23:46:51.013Z,15.85
2022-10-07T23:51:53.756Z,16.01
2022-10-07T23:56:56.110Z,15.89
